Time;durP1;ratioP1;P1;durP2;ratioP2;P2;SDS_P1;SDS_P2;PMS_P1;PMS_P2;Temp;Humidity;BMP_temperature;BMP_pressure;BME280_temperature;BME280_humidity;BME280_pressure;Samples;Min_cycle;Max_cycle;Signal;HPM_P1;HPM_P2
2022/10/27 00:01:21;;;;;;;10.00;3.95;;;17.40;99.90;;;;;;5047825;28;25070;-74
2022/10/27 00:03:50;;;;;;;7.07;3.05;;;17.30;99.90;;;;;;5066148;28;25120;-75
2022/10/27 00:06:16;;;;;;;12.70;3.92;;;17.40;99.90;;;;;;5062203;28;25105;-76
2022/10/27 00:08:41;;;;;;;9.00;3.28;;;17.30;99.90;;;;;;5047282;28;25105;-73
2022/10/27 00:11:07;;;;;;;7.97;3.20;;;17.30;99.90;;;;;;5056587;28;25109;-76
2022/10/27 00:13:33;;;;;;;8.95;3.85;;;17.40;99.90;;;;;;5073153;28;25065;-71
2022/10/27 00:16:02;;;;;;;8.10;3.25;;;17.40;99.90;;;;;;5069053;28;25066;-71
2022/10/27 00:18:27;;;;;;;9.27;3.25;;;17.30;99.90;;;;;;5072394;28;25055;-71
2022/10/27 00:21:14;;;;;;;7.57;3.15;;;17.30;99.90;;;;;;5069267;28;25073;-72
2022/10/27 00:23:40;;;;;;;7.75;3.70;;;17.40;99.90;;;;;;5065146;28;25130;-71
2022/10/27 00:26:09;;;;;;;6.15;3.47;;;17.30;99.90;;;;;;5073952;28;25171;-71
2022/10/27 00:28:35;;;;;;;6.88;3.17;;;17.20;99.90;;;;;;5060545;28;25048;-70
2022/10/27 00:31:04;;;;;;;9.52;4.07;;;17.20;99.90;;;;;;5064056;28;25056;-70
2022/10/27 00:33:30;;;;;;;8.77;3.42;;;17.20;99.90;;;;;;5047900;28;25153;-71
2022/10/27 00:35:56;;;;;;;6.85;3.42;;;17.20;99.90;;;;;;5069393;28;25138;-70
2022/10/27 00:38:22;;;;;;;8.45;2.90;;;17.10;99.90;;;;;;5073401;28;25160;-71
2022/10/27 00:40:48;;;;;;;7.88;4.03;;;17.10;99.90;;;;;;5065667;28;25129;-71
2022/10/27 00:43:23;;;;;;;10.45;3.83;;;17.10;99.90;;;;;;5055850;28;25052;-70
2022/10/27 00:45:49;;;;;;;7.57;3.80;;;17.10;99.90;;;;;;5052289;28;25058;-71
2022/10/27 00:48:14;;;;;;;6.57;2.90;;;17.20;99.90;;;;;;5071008;28;25146;-71
2022/10/27 00:50:40;;;;;;;11.20;3.70;;;17.20;99.90;;;;;;5065065;28;25097;-71
2022/10/27 00:53:05;;;;;;;10.30;3.33;;;17.20;99.90;;;;;;5061727;28;25141;-71
2022/10/27 00:55:34;;;;;;;9.23;3.88;;;17.20;99.90;;;;;;5063889;28;25156;-72
2022/10/27 00:58:03;;;;;;;10.13;4.10;;;17.10;99.90;;;;;;5069402;28;25057;-71
2022/10/27 01:00:28;;;;;;;10.55;3.95;;;17.20;99.90;;;;;;5076728;28;25066;-70
2022/10/27 01:02:55;;;;;;;6.80;3.53;;;17.30;99.90;;;;;;5076708;28;25065;-70
2022/10/27 01:05:26;;;;;;;9.85;3.33;;;17.30;99.90;;;;;;5064916;28;25067;-70
2022/10/27 01:07:56;;;;;;;7.97;3.25;;;17.30;99.90;;;;;;5067488;28;25135;-71
2022/10/27 01:10:22;;;;;;;9.18;3.75;;;17.40;99.90;;;;;;5069234;28;25055;-71
2022/10/27 01:12:49;;;;;;;8.95;3.60;;;17.30;99.90;;;;;;5072972;28;25037;-71
2022/10/27 01:15:15;;;;;;;7.40;3.50;;;17.20;99.90;;;;;;5076050;28;25152;-71
2022/10/27 01:18:07;;;;;;;14.60;6.20;;;17.20;99.90;;;;;;5063968;28;25056;-72
2022/10/27 01:20:45;;;;;;;8.43;3.20;;;17.20;99.90;;;;;;5059120;28;25147;-72
2022/10/27 01:23:22;;;;;;;9.27;3.17;;;17.10;99.90;;;;;;5063119;28;25087;-70
2022/10/27 01:25:57;;;;;;;6.80;3.30;;;17.20;99.90;;;;;;5061270;28;25096;-71
2022/10/27 01:28:41;;;;;;;8.23;3.08;;;17.10;99.90;;;;;;5065741;28;25080;-70
2022/10/27 01:31:28;;;;;;;10.63;3.50;;;17.20;99.90;;;;;;5058896;28;25066;-71
2022/10/27 01:34:11;;;;;;;8.45;3.38;;;17.10;99.90;;;;;;5059394;28;25084;-70
2022/10/27 01:36:47;;;;;;;;;;;17.10;99.90;;;;;;5068003;28;25141;-71
2022/10/27 01:39:23;;;;;;;7.85;3.03;;;17.10;99.90;;;;;;5065051;28;24069;-70
2022/10/27 01:41:55;;;;;;;9.80;3.60;;;17.10;99.90;;;;;;5074277;28;25078;-70
2022/10/27 01:44:30;;;;;;;11.43;3.13;;;17.10;99.90;;;;;;5058575;28;25110;-71
2022/10/27 01:46:57;;;;;;;5.10;3.00;;;17.10;99.90;;;;;;5059537;28;25088;-70
2022/10/27 01:49:23;;;;;;;5.90;3.20;;;17.20;99.90;;;;;;5063276;28;25068;-70
2022/10/27 01:51:49;;;;;;;4.95;3.08;;;17.10;99.90;;;;;;5057818;28;25132;-70
2022/10/27 01:54:17;;;;;;;8.10;3.38;;;17.20;99.90;;;;;;5057961;28;25077;-71
2022/10/27 01:56:43;;;;;;;13.63;3.25;;;17.30;99.90;;;;;;5056903;28;25087;-70
2022/10/27 01:59:32;;;;;;;6.88;3.22;;;17.30;99.90;;;;;;5059740;28;25056;-71
2022/10/27 02:02:07;;;;;;;10.70;2.97;;;17.20;99.90;;;;;;5043943;28;25173;-71
2022/10/27 02:04:40;;;;;;;12.35;3.58;;;17.10;99.90;;;;;;5060706;28;25067;-70
2022/10/27 02:07:17;;;;;;;12.02;3.28;;;17.00;99.90;;;;;;5064994;28;25147;-70
2022/10/27 02:09:51;;;;;;;10.05;3.53;;;17.10;99.90;;;;;;5075209;28;25150;-70
2022/10/27 02:12:30;;;;;;;11.00;2.95;;;17.00;99.90;;;;;;5068233;28;25135;-70
2022/10/27 02:14:58;;;;;;;5.40;2.67;;;17.10;99.90;;;;;;5070568;28;25063;-70
2022/10/27 02:17:30;;;;;;;5.28;2.85;;;17.10;99.90;;;;;;5076719;28;25089;-71
2022/10/27 02:19:58;;;;;;;7.13;2.90;;;17.10;99.90;;;;;;5066320;28;25093;-72
2022/10/27 02:22:27;;;;;;;6.80;2.83;;;17.10;99.90;;;;;;5070254;28;25056;-70
2022/10/27 02:24:52;;;;;;;5.47;2.80;;;17.10;99.90;;;;;;5061158;28;25084;-71
2022/10/27 02:27:38;;;;;;;6.80;2.80;;;17.10;99.90;;;;;;5073203;28;25162;-70
2022/10/27 02:30:05;;;;;;;12.18;3.72;;;17.10;99.90;;;;;;5068770;28;25091;-71
2022/10/27 02:32:32;;;;;;;7.15;2.80;;;17.10;99.90;;;;;;5050302;28;25062;-71
2022/10/27 02:34:59;;;;;;;13.63;3.40;;;17.00;99.90;;;;;;5067170;28;25094;-70
2022/10/27 02:37:37;;;;;;;6.22;3.22;;;16.90;99.90;;;;;;5062264;28;25087;-71
2022/10/27 02:40:03;;;;;;;10.38;3.67;;;17.00;99.90;;;;;;5061530;28;25043;-71
2022/10/27 02:42:29;;;;;;;7.68;2.95;;;16.90;99.90;;;;;;5072005;28;25054;-71
2022/10/27 02:44:54;;;;;;;9.15;3.30;;;17.00;99.90;;;;;;5068170;28;25073;-71
2022/10/27 02:47:20;;;;;;;8.65;2.95;;;16.90;99.90;;;;;;5069066;28;25086;-72
2022/10/27 02:49:46;;;;;;;5.85;3.03;;;17.00;99.90;;;;;;5057440;28;25086;-71
2022/10/27 02:52:12;;;;;;;8.63;3.60;;;16.90;99.90;;;;;;5087301;28;25084;-70
2022/10/27 02:54:38;;;;;;;8.80;3.03;;;16.90;99.90;;;;;;5091207;28;25104;-78
2022/10/27 02:57:04;;;;;;;10.68;3.63;;;16.90;99.90;;;;;;5073768;28;25075;-75
2022/10/27 02:59:29;;;;;;;6.43;3.45;;;16.90;99.90;;;;;;5072510;28;25106;-73
2022/10/27 03:01:55;;;;;;;13.20;4.40;;;16.90;99.90;;;;;;5068630;28;25082;-72
2022/10/27 03:04:20;;;;;;;8.00;2.92;;;16.90;99.90;;;;;;5067249;28;25147;-76
2022/10/27 03:06:46;;;;;;;14.38;3.97;;;17.00;99.90;;;;;;5061127;28;25080;-75
2022/10/27 03:09:11;;;;;;;7.70;3.15;;;17.00;99.90;;;;;;5071206;28;25095;-77
2022/10/27 03:11:37;;;;;;;17.55;3.75;;;17.00;99.90;;;;;;5067703;28;25049;-78
2022/10/27 03:14:03;;;;;;;10.57;3.20;;;16.90;99.90;;;;;;5064685;28;25140;-76
2022/10/27 03:16:29;;;;;;;11.20;3.42;;;16.90;99.90;;;;;;5065204;28;25052;-76
2022/10/27 03:18:54;;;;;;;9.18;4.65;;;16.90;99.90;;;;;;5055471;28;25154;-76
2022/10/27 03:21:20;;;;;;;12.57;4.05;;;16.80;99.90;;;;;;5067937;28;25050;-73
2022/10/27 03:23:45;;;;;;;9.13;3.10;;;16.80;99.90;;;;;;5066962;28;25062;-77
2022/10/27 03:26:11;;;;;;;11.73;3.67;;;17.00;99.90;;;;;;5069604;28;25111;-76
2022/10/27 03:28:36;;;;;;;8.10;3.65;;;16.90;99.90;;;;;;5054295;28;25108;-76
2022/10/27 03:31:04;;;;;;;10.57;3.80;;;16.80;99.90;;;;;;5062621;28;25066;-75
2022/10/27 03:33:30;;;;;;;10.90;3.92;;;16.80;99.90;;;;;;5069224;28;25060;-74
2022/10/27 03:35:56;;;;;;;6.53;3.17;;;16.80;99.90;;;;;;5069175;28;25055;-73
2022/10/27 03:38:21;;;;;;;6.85;3.20;;;16.70;99.90;;;;;;5063237;28;25158;-74
2022/10/27 03:40:47;;;;;;;7.88;2.97;;;16.80;99.90;;;;;;5044199;28;25081;-74
2022/10/27 03:43:13;;;;;;;5.05;3.15;;;16.80;99.90;;;;;;5061542;28;25062;-78
2022/10/27 03:45:38;;;;;;;15.57;3.40;;;16.80;99.90;;;;;;5062468;28;25064;-72
2022/10/27 03:48:10;;;;;;;10.90;4.20;;;16.80;99.90;;;;;;5052066;28;25056;-75
2022/10/27 03:50:35;;;;;;;4.80;2.78;;;16.80;99.90;;;;;;5057698;28;25080;-75
2022/10/27 03:53:02;;;;;;;7.88;2.78;;;16.80;99.90;;;;;;5074338;28;25093;-75
2022/10/27 03:55:29;;;;;;;4.68;2.60;;;16.80;99.90;;;;;;5057566;28;25072;-76
2022/10/27 03:57:55;;;;;;;8.50;3.42;;;16.80;99.90;;;;;;5062289;28;25092;-73
2022/10/27 04:00:21;;;;;;;7.25;2.95;;;16.70;99.90;;;;;;5065669;28;25055;-77
2022/10/27 04:02:46;;;;;;;6.18;2.75;;;16.70;99.90;;;;;;5074645;28;25116;-74
2022/10/27 04:05:12;;;;;;;5.00;3.10;;;16.70;99.90;;;;;;5059723;28;25087;-75
2022/10/27 04:07:38;;;;;;;7.30;3.17;;;16.80;99.90;;;;;;5052662;28;25144;-76
2022/10/27 04:10:04;;;;;;;9.90;2.70;;;16.80;99.90;;;;;;5064151;28;25078;-74
2022/10/27 04:12:30;;;;;;;6.95;3.45;;;16.80;99.90;;;;;;5076718;28;25137;-73
2022/10/27 04:14:55;;;;;;;11.23;3.50;;;16.70;99.90;;;;;;5049487;28;25162;-75
2022/10/27 04:17:21;;;;;;;8.02;3.03;;;16.70;99.90;;;;;;5066603;28;25095;-72
2022/10/27 04:19:46;;;;;;;4.18;2.67;;;16.60;99.90;;;;;;5057711;28;25069;-71
2022/10/27 04:22:12;;;;;;;6.38;3.03;;;16.60;99.90;;;;;;5065353;28;25170;-70
2022/10/27 04:24:41;;;;;;;4.85;2.70;;;16.60;99.90;;;;;;5065360;28;25141;-71
2022/10/27 04:27:06;;;;;;;9.02;3.70;;;16.70;99.90;;;;;;5068636;28;25103;-71
2022/10/27 04:29:32;;;;;;;7.50;3.00;;;16.60;99.90;;;;;;5061950;28;25133;-71
2022/10/27 04:31:58;;;;;;;7.07;3.17;;;16.60;99.90;;;;;;5074274;28;25093;-71
2022/10/27 04:34:24;;;;;;;7.57;2.88;;;16.60;99.90;;;;;;5062068;28;25095;-72
2022/10/27 04:36:49;;;;;;;5.43;2.67;;;16.60;99.90;;;;;;5066145;28;25066;-72
2022/10/27 04:39:15;;;;;;;6.82;3.10;;;16.60;99.90;;;;;;5074399;28;25092;-72
2022/10/27 04:41:41;;;;;;;6.07;2.55;;;16.60;99.90;;;;;;5045879;28;25070;-71
2022/10/27 04:44:07;;;;;;;6.65;2.88;;;16.70;99.90;;;;;;5063199;28;25071;-71
2022/10/27 04:46:33;;;;;;;10.52;3.13;;;16.50;99.90;;;;;;5062636;28;25148;-71
2022/10/27 04:48:59;;;;;;;5.82;2.63;;;16.50;99.90;;;;;;5064359;28;25259;-71
2022/10/27 04:51:25;;;;;;;6.15;2.75;;;16.50;99.90;;;;;;5069316;28;25053;-72
2022/10/27 04:53:50;;;;;;;5.85;2.40;;;16.40;99.90;;;;;;5060797;28;25135;-71
2022/10/27 04:56:16;;;;;;;8.40;2.65;;;16.40;99.90;;;;;;5065498;28;25048;-71
2022/10/27 04:58:42;;;;;;;7.40;2.22;;;16.40;99.90;;;;;;5045551;28;25077;-73
2022/10/27 05:01:09;;;;;;;7.20;3.03;;;16.30;99.90;;;;;;5070991;28;25134;-71
2022/10/27 05:03:35;;;;;;;8.63;2.60;;;16.40;99.90;;;;;;5061575;28;25156;-71
2022/10/27 05:06:01;;;;;;;13.73;4.00;;;16.50;99.90;;;;;;5063982;28;25072;-72
2022/10/27 05:08:26;;;;;;;6.20;2.72;;;16.40;99.90;;;;;;5057384;28;25052;-72
2022/10/27 05:10:52;;;;;;;8.23;3.00;;;16.40;99.90;;;;;;5044608;28;25056;-72
2022/10/27 05:13:18;;;;;;;7.30;2.70;;;16.40;99.90;;;;;;5053749;28;25140;-72
2022/10/27 05:15:43;;;;;;;6.15;2.28;;;16.40;99.90;;;;;;5057421;28;25065;-71
2022/10/27 05:18:09;;;;;;;7.57;2.80;;;16.40;99.90;;;;;;5058617;28;25120;-71
2022/10/27 05:20:34;;;;;;;3.83;2.28;;;16.40;99.90;;;;;;5052627;28;25096;-71
2022/10/27 05:23:00;;;;;;;5.93;2.50;;;16.40;99.90;;;;;;5053621;28;25100;-71
2022/10/27 05:25:25;;;;;;;8.93;2.53;;;16.40;99.90;;;;;;5037245;28;25081;-71
2022/10/27 05:27:51;;;;;;;4.53;2.60;;;16.30;99.90;;;;;;5057069;28;25062;-71
2022/10/27 05:30:17;;;;;;;7.72;2.53;;;16.30;99.90;;;;;;5038944;28;25079;-72
2022/10/27 05:32:43;;;;;;;4.20;2.67;;;16.40;99.90;;;;;;5062038;28;25087;-71
2022/10/27 05:35:08;;;;;;;8.38;2.47;;;16.30;99.90;;;;;;5058295;28;25086;-71
2022/10/27 05:37:34;;;;;;;7.00;2.85;;;16.30;99.90;;;;;;5043341;28;25083;-71
2022/10/27 05:40:00;;;;;;;5.13;2.60;;;16.20;99.90;;;;;;5054807;28;25067;-71
2022/10/27 05:42:26;;;;;;;7.32;2.42;;;16.30;99.90;;;;;;5053728;28;25128;-71
2022/10/27 05:44:51;;;;;;;4.35;2.50;;;16.30;99.90;;;;;;5060247;28;25066;-71
2022/10/27 05:47:17;;;;;;;6.20;2.58;;;16.20;99.90;;;;;;5072406;28;25053;-71
2022/10/27 05:49:43;;;;;;;7.70;2.88;;;16.20;99.90;;;;;;5062882;28;25074;-71
2022/10/27 05:52:08;;;;;;;5.80;2.70;;;16.20;99.90;;;;;;5064479;28;25097;-70
2022/10/27 05:54:35;;;;;;;10.50;3.05;;;16.20;99.90;;;;;;5058476;28;25090;-70
2022/10/27 05:57:01;;;;;;;7.10;2.78;;;16.20;99.90;;;;;;5062690;28;25099;-69
2022/10/27 05:59:26;;;;;;;6.88;2.40;;;16.10;99.90;;;;;;5054647;28;25063;-70
2022/10/27 06:01:52;;;;;;;8.45;2.08;;;16.10;99.90;;;;;;5040870;28;25156;-70
2022/10/27 06:04:17;;;;;;;5.18;2.30;;;15.90;99.90;;;;;;5060076;28;25061;-71
2022/10/27 06:06:43;;;;;;;7.63;2.80;;;16.00;99.90;;;;;;5057085;28;25062;-70
2022/10/27 06:09:08;;;;;;;5.28;2.00;;;16.00;99.90;;;;;;5066168;28;25087;-70
2022/10/27 06:11:34;;;;;;;12.27;2.78;;;16.00;99.90;;;;;;5059169;28;25089;-70
2022/10/27 06:13:59;;;;;;;5.43;2.00;;;16.00;99.90;;;;;;5050714;28;25051;-71
2022/10/27 06:16:25;;;;;;;3.58;2.05;;;16.00;99.90;;;;;;5052456;28;25066;-69
2022/10/27 06:18:52;;;;;;;9.05;2.63;;;16.00;99.90;;;;;;5065275;28;25112;-71
2022/10/27 06:21:19;;;;;;;4.53;1.70;;;16.00;99.90;;;;;;5073629;28;25139;-70
2022/10/27 06:23:47;;;;;;;6.15;2.15;;;16.10;99.90;;;;;;5066138;28;25064;-70
2022/10/27 06:26:13;;;;;;;5.15;2.50;;;16.00;99.90;;;;;;5063612;28;25076;-72
2022/10/27 06:28:38;;;;;;;6.60;2.25;;;16.00;99.90;;;;;;5054822;28;25077;-71
2022/10/27 06:31:04;;;;;;;6.63;2.15;;;15.90;99.90;;;;;;5059861;28;25144;-71
2022/10/27 06:33:29;;;;;;;5.60;2.30;;;15.90;99.90;;;;;;5059759;28;25125;-71
2022/10/27 06:35:55;;;;;;;6.78;1.92;;;16.00;99.90;;;;;;5061167;28;25061;-71
2022/10/27 06:38:21;;;;;;;6.43;2.10;;;15.90;99.90;;;;;;5056050;28;25064;-70
2022/10/27 06:40:46;;;;;;;7.78;2.17;;;16.00;99.90;;;;;;5065923;28;25103;-71
2022/10/27 06:43:12;;;;;;;6.35;1.88;;;16.00;99.90;;;;;;5065436;28;25101;-70
2022/10/27 06:45:38;;;;;;;5.18;1.70;;;15.90;99.90;;;;;;5069683;28;25097;-71
2022/10/27 06:48:05;;;;;;;4.82;1.80;;;15.90;99.90;;;;;;5072256;28;25127;-71
2022/10/27 06:50:32;;;;;;;7.85;2.15;;;16.00;99.90;;;;;;5071704;28;25081;-72
2022/10/27 06:52:57;;;;;;;8.02;1.90;;;16.00;99.90;;;;;;5072816;28;25072;-72
2022/10/27 06:55:23;;;;;;;9.05;1.92;;;15.90;99.90;;;;;;5072790;28;25085;-71
2022/10/27 06:57:49;;;;;;;4.28;1.80;;;16.00;99.90;;;;;;5056782;28;25135;-70
2022/10/27 07:00:15;;;;;;;4.68;1.95;;;15.90;99.90;;;;;;5073003;28;25051;-71
2022/10/27 07:02:40;;;;;;;6.28;2.40;;;15.90;99.90;;;;;;5066280;28;25071;-72
2022/10/27 07:05:06;;;;;;;3.88;1.38;;;15.90;99.90;;;;;;5068047;28;25066;-71
2022/10/27 07:07:32;;;;;;;9.75;2.03;;;15.80;99.90;;;;;;5072859;28;25092;-71
2022/10/27 07:09:58;;;;;;;2.80;1.77;;;15.70;99.90;;;;;;5076938;28;25059;-71
2022/10/27 07:12:24;;;;;;;7.28;2.08;;;15.70;99.90;;;;;;5078416;28;25070;-71
2022/10/27 07:14:49;;;;;;;2.40;1.60;;;15.80;99.90;;;;;;5074804;28;25065;-71
2022/10/27 07:17:15;;;;;;;5.85;1.67;;;15.80;99.90;;;;;;5071207;28;25062;-73
2022/10/27 07:19:40;;;;;;;3.50;1.73;;;15.80;99.90;;;;;;5065562;28;25144;-71
2022/10/27 07:22:06;;;;;;;4.88;1.70;;;15.70;99.90;;;;;;5067124;28;25098;-71
2022/10/27 07:24:32;;;;;;;3.15;1.90;;;15.80;99.90;;;;;;5059817;28;25071;-71
2022/10/27 07:26:57;;;;;;;4.82;1.67;;;15.80;99.90;;;;;;5066923;28;25101;-71
2022/10/27 07:29:23;;;;;;;3.22;1.85;;;15.80;99.90;;;;;;5065807;28;25053;-72
2022/10/27 07:31:48;;;;;;;5.35;1.60;;;15.80;99.90;;;;;;5069283;28;25079;-72
2022/10/27 07:34:14;;;;;;;4.47;1.50;;;15.80;99.90;;;;;;5035646;28;25150;-72
2022/10/27 07:36:40;;;;;;;5.30;1.63;;;15.80;99.90;;;;;;5072831;28;25058;-72
2022/10/27 07:39:07;;;;;;;1.20;1.10;;;15.90;99.90;;;;;;5074618;28;25138;-74
2022/10/27 07:41:33;;;;;;;7.45;1.73;;;15.90;99.90;;;;;;5044086;28;25101;-69
2022/10/27 07:43:58;;;;;;;4.95;2.40;;;16.00;99.90;;;;;;5066752;28;25135;-70
2022/10/27 07:46:24;;;;;;;5.00;1.85;;;16.20;99.90;;;;;;5070788;28;25064;-71
2022/10/27 07:48:49;;;;;;;4.07;1.70;;;16.20;99.90;;;;;;5055739;28;25123;-72
2022/10/27 07:51:15;;;;;;;9.70;1.83;;;16.10;99.90;;;;;;5063377;28;25053;-72
2022/10/27 07:53:40;;;;;;;3.15;1.67;;;16.10;99.90;;;;;;5053095;28;25081;-72
2022/10/27 07:56:06;;;;;;;4.40;1.42;;;16.10;99.90;;;;;;5061740;28;25070;-71
2022/10/27 07:58:32;;;;;;;5.75;1.90;;;16.10;99.90;;;;;;5076097;28;25108;-69
2022/10/27 08:00:58;;;;;;;2.25;1.40;;;16.20;99.90;;;;;;5054804;28;25055;-71
2022/10/27 08:03:28;;;;;;;2.78;1.25;;;16.20;99.90;;;;;;5068295;28;25074;-73
2022/10/27 08:05:54;;;;;;;6.10;1.98;;;16.30;99.90;;;;;;5062450;28;25065;-72
2022/10/27 08:08:20;;;;;;;8.60;1.83;;;16.30;99.90;;;;;;5062206;28;25115;-70
2022/10/27 08:10:48;;;;;;;4.07;1.65;;;16.30;99.90;;;;;;5082888;28;25063;-71
2022/10/27 08:13:14;;;;;;;5.60;1.60;;;16.40;99.90;;;;;;5063809;28;25095;-71
2022/10/27 08:15:40;;;;;;;4.55;1.40;;;16.40;99.90;;;;;;5072295;28;25078;-70
2022/10/27 08:18:07;;;;;;;3.80;2.00;;;16.40;99.90;;;;;;5076852;28;25115;-70
2022/10/27 08:20:36;;;;;;;5.70;1.30;;;16.50;99.90;;;;;;5060308;28;25048;-69
2022/10/27 08:23:05;;;;;;;4.32;1.42;;;16.50;99.90;;;;;;5068607;28;25136;-71
2022/10/27 08:25:31;;;;;;;1.67;1.02;;;16.70;99.90;;;;;;5068697;28;25047;-72
2022/10/27 08:27:57;;;;;;;3.78;1.77;;;16.70;99.90;;;;;;5047474;28;25110;-70
2022/10/27 08:30:25;;;;;;;3.15;1.75;;;16.70;99.90;;;;;;5063075;28;25064;-70
2022/10/27 08:32:55;;;;;;;5.20;1.65;;;16.70;99.90;;;;;;5062201;28;25116;-70
2022/10/27 08:35:20;;;;;;;2.47;1.38;;;16.70;99.90;;;;;;5051197;28;25064;-70
2022/10/27 08:37:46;;;;;;;2.83;1.25;;;16.80;99.90;;;;;;5054106;28;25051;-71
2022/10/27 08:40:12;;;;;;;3.60;1.23;;;16.90;99.90;;;;;;5063890;28;25098;-71
2022/10/27 08:43:05;;;;;;;1.38;0.82;;;16.90;99.90;;;;;;5069267;28;25080;-70
2022/10/27 08:45:58;;;;;;;1.38;1.00;;;16.90;99.90;;;;;;5064141;28;25126;-71
2022/10/27 08:48:25;;;;;;;;;;;16.90;99.90;;;;;;5058916;28;27138;-71
2022/10/27 08:50:51;;;;;;;3.75;0.88;;;16.90;99.90;;;;;;5053272;28;24066;-71
2022/10/27 08:53:32;;;;;;;3.38;1.20;;;17.00;99.90;;;;;;5064659;28;25113;-70
2022/10/27 08:56:05;;;;;;;3.00;1.00;;;16.90;99.90;;;;;;5071156;28;25082;-70
2022/10/27 08:58:36;;;;;;;4.90;0.88;;;16.90;99.90;;;;;;5063178;28;25053;-72
2022/10/27 09:01:08;;;;;;;2.78;0.93;;;17.00;99.90;;;;;;5067065;28;25071;-71
2022/10/27 09:03:52;;;;;;;2.30;1.20;;;17.00;99.90;;;;;;5069426;28;25072;-72
2022/10/27 09:06:25;;;;;;;4.53;0.90;;;17.10;99.90;;;;;;5069316;28;25153;-73
2022/10/27 09:09:11;;;;;;;2.67;1.20;;;17.00;99.90;;;;;;5068457;28;25068;-73
2022/10/27 09:12:14;;;;;;;1.42;0.68;;;17.10;99.90;;;;;;5070608;28;25074;-72
2022/10/27 09:15:32;;;;;;;6.63;0.90;;;17.20;99.90;;;;;;5067175;28;25069;-72
2022/10/27 09:18:08;;;;;;;1.70;0.70;;;17.20;99.90;;;;;;5056134;28;25063;-75
2022/10/27 09:20:46;;;;;;;4.47;1.38;;;17.30;99.90;;;;;;5062882;28;25091;-73
2022/10/27 09:23:33;;;;;;;1.38;0.77;;;17.40;99.90;;;;;;5060221;28;25146;-74
2022/10/27 09:25:58;;;;;;;3.55;1.00;;;17.50;99.90;;;;;;5062074;28;25154;-72
2022/10/27 09:28:45;;;;;;;4.85;1.42;;;17.50;99.90;;;;;;5060350;28;25087;-73
2022/10/27 09:31:36;;;;;;;2.05;0.75;;;17.50;99.90;;;;;;5060871;28;25057;-73
2022/10/27 09:34:28;;;;;;;2.97;0.90;;;17.60;99.90;;;;;;5038954;28;25132;-73
2022/10/27 09:36:55;;;;;;;1.42;0.75;;;17.60;99.90;;;;;;5054964;28;25089;-73
2022/10/27 09:39:21;;;;;;;4.25;0.88;;;17.70;99.90;;;;;;5062459;28;25059;-73
2022/10/27 09:41:48;;;;;;;0.85;0.82;;;17.90;99.90;;;;;;5059613;28;25057;-72
2022/10/27 09:44:19;;;;;;;2.55;0.82;;;18.10;99.90;;;;;;5076163;28;25067;-73
2022/10/27 09:46:52;;;;;;;4.82;1.00;;;18.20;99.90;;;;;;5069376;28;25108;-74
2022/10/27 09:49:21;;;;;;;2.97;1.08;;;18.20;99.90;;;;;;5061186;28;25060;-73
2022/10/27 09:52:02;;;;;;;4.20;1.15;;;18.10;99.90;;;;;;5047185;28;25097;-72
2022/10/27 09:54:35;;;;;;;4.60;1.15;;;18.20;99.90;;;;;;5054701;28;25069;-72
2022/10/27 09:57:12;;;;;;;1.08;0.80;;;18.20;99.90;;;;;;5066438;28;25060;-73
2022/10/27 09:59:39;;;;;;;1.73;0.98;;;18.30;99.90;;;;;;5053744;28;25168;-73
2022/10/27 10:02:29;;;;;;;3.20;0.85;;;18.30;99.90;;;;;;5068485;28;25084;-72
2022/10/27 10:04:56;;;;;;;6.00;1.17;;;18.40;99.90;;;;;;5061334;28;25061;-74
2022/10/27 10:07:33;;;;;;;5.88;1.23;;;18.40;99.90;;;;;;5060461;28;25099;-74
2022/10/27 10:10:22;;;;;;;4.22;1.42;;;18.40;99.90;;;;;;5047587;28;25071;-74
2022/10/27 10:13:11;;;;;;;4.22;1.98;;;18.40;99.90;;;;;;5061397;28;25090;-72
2022/10/27 10:15:42;;;;;;;3.25;0.98;;;18.30;99.90;;;;;;5055844;28;25095;-74
2022/10/27 10:18:27;;;;;;;1.67;0.90;;;18.40;99.90;;;;;;5048042;28;25101;-73
2022/10/27 10:21:03;;;;;;;2.47;0.73;;;18.30;99.90;;;;;;5066806;28;25095;-73
2022/10/27 10:23:32;;;;;;;1.60;0.93;;;18.30;99.90;;;;;;5069946;28;25089;-73
2022/10/27 10:25:59;;;;;;;3.90;1.00;;;18.30;99.90;;;;;;5067559;28;25077;-72
2022/10/27 10:28:37;;;;;;;3.03;1.00;;;18.30;99.90;;;;;;5059141;28;25076;-73
2022/10/27 10:31:06;;;;;;;2.90;1.33;;;18.30;99.90;;;;;;5057844;28;25093;-71
2022/10/27 10:33:34;;;;;;;1.85;0.80;;;18.40;99.90;;;;;;5065847;28;25107;-72
2022/10/27 10:36:14;;;;;;;5.32;1.13;;;18.40;99.90;;;;;;5066466;28;25067;-73
2022/10/27 10:38:41;;;;;;;2.55;1.15;;;18.40;99.90;;;;;;5064345;28;25065;-73
2022/10/27 10:41:15;;;;;;;6.03;1.10;;;18.50;99.90;;;;;;5068462;28;25079;-72
2022/10/27 10:43:42;;;;;;;7.88;1.17;;;18.50;99.90;;;;;;5072649;28;25140;-73
2022/10/27 10:46:21;;;;;;;3.42;1.15;;;18.60;99.90;;;;;;5060186;28;25100;-73
2022/10/27 10:48:51;;;;;;;2.08;0.93;;;18.70;99.90;;;;;;5062958;28;25107;-73
2022/10/27 10:51:33;;;;;;;6.25;1.17;;;18.80;99.90;;;;;;5064883;28;25107;-73
2022/10/27 10:54:08;;;;;;;1.25;1.15;;;18.90;99.90;;;;;;5070917;28;25073;-74
2022/10/27 10:56:36;;;;;;;6.95;1.83;;;19.00;99.90;;;;;;5074356;28;25069;-72
2022/10/27 10:59:17;;;;;;;8.48;1.50;;;19.00;99.90;;;;;;5062063;28;25046;-74
2022/10/27 11:01:42;;;;;;;6.72;0.98;;;19.00;99.90;;;;;;5062831;28;25137;-73
2022/10/27 11:04:20;;;;;;;3.03;1.30;;;19.10;99.90;;;;;;5066306;28;25151;-73
2022/10/27 11:07:20;;;;;;;2.22;1.08;;;19.10;99.90;;;;;;5067551;28;25089;-72
2022/10/27 11:10:12;;;;;;;2.60;1.10;;;19.20;99.90;;;;;;5067697;28;25131;-72
2022/10/27 11:13:10;;;;;;;2.35;1.20;;;19.20;99.90;;;;;;5065938;28;25104;-74
2022/10/27 11:15:54;;;;;;;2.58;1.48;;;19.20;99.90;;;;;;5018921;28;25056;-73
2022/10/27 11:18:29;;;;;;;2.90;1.08;;;19.30;99.90;;;;;;5072093;28;25146;-73
2022/10/27 11:21:16;;;;;;;3.65;1.42;;;19.30;99.90;;;;;;5063080;28;25096;-73
2022/10/27 11:23:53;;;;;;;5.10;1.30;;;19.30;99.90;;;;;;5061393;28;25134;-72
2022/10/27 11:26:26;;;;;;;3.70;1.10;;;19.30;99.90;;;;;;5072992;28;25078;-73
2022/10/27 11:29:17;;;;;;;3.53;1.60;;;19.30;99.90;;;;;;5071355;28;25060;-74
2022/10/27 11:31:55;;;;;;;3.50;1.17;;;19.30;99.90;;;;;;5047941;28;25138;-73
2022/10/27 11:34:27;;;;;;;13.45;1.45;;;19.20;99.90;;;;;;5060270;28;25076;-73
2022/10/27 11:37:07;;;;;;;2.40;1.10;;;19.30;99.90;;;;;;5059737;28;25058;-72
2022/10/27 11:39:57;;;;;;;3.35;1.58;;;19.30;99.90;;;;;;5052514;28;25068;-72
2022/10/27 11:42:26;;;;;;;6.80;1.45;;;19.40;99.90;;;;;;5057297;28;25150;-74
2022/10/27 11:45:12;;;;;;;3.25;1.52;;;19.20;99.90;;;;;;5063854;28;25068;-73
2022/10/27 11:47:48;;;;;;;3.40;1.40;;;19.10;99.90;;;;;;5070475;28;25104;-73
2022/10/27 11:50:25;;;;;;;5.88;2.00;;;19.10;99.90;;;;;;5048607;28;25057;-73
2022/10/27 11:52:55;;;;;;;4.82;2.42;;;19.20;99.90;;;;;;5063274;28;25062;-71
2022/10/27 11:55:26;;;;;;;9.13;2.65;;;19.30;99.90;;;;;;5059526;28;25047;-72
2022/10/27 11:58:10;;;;;;;5.03;1.60;;;19.30;99.90;;;;;;5061460;28;25102;-73
2022/10/27 12:00:57;;;;;;;5.82;1.73;;;19.30;99.90;;;;;;5061582;28;25067;-73
2022/10/27 12:03:49;;;;;;;5.82;1.60;;;19.40;99.90;;;;;;5067802;28;25121;-73
2022/10/27 12:06:41;;;;;;;5.73;1.93;;;19.50;99.90;;;;;;5010255;28;25080;-74
2022/10/27 12:09:28;;;;;;;2.33;1.15;;;19.60;99.90;;;;;;5043863;28;25064;-73
2022/10/27 12:12:19;;;;;;;8.10;1.15;;;19.60;99.90;;;;;;5049509;28;25099;-73
2022/10/27 12:15:01;;;;;;;4.18;1.65;;;19.60;99.90;;;;;;5051649;28;25083;-74
2022/10/27 12:17:40;;;;;;;4.38;1.60;;;19.60;99.90;;;;;;5048475;28;25050;-73
2022/10/27 12:20:10;;;;;;;6.72;1.88;;;19.70;99.90;;;;;;5072235;28;25133;-73
2022/10/27 12:22:42;;;;;;;4.93;1.80;;;19.60;99.90;;;;;;5053936;28;25093;-72
2022/10/27 12:25:35;;;;;;;3.75;1.30;;;19.60;99.90;;;;;;5049868;28;25147;-74
2022/10/27 12:28:05;;;;;;;4.03;1.38;;;19.60;99.90;;;;;;5041151;28;25096;-74
2022/10/27 12:30:31;;;;;;;2.25;1.30;;;19.70;99.90;;;;;;5070473;28;25126;-74
2022/10/27 12:33:21;;;;;;;3.42;1.60;;;19.80;99.90;;;;;;5062374;28;25121;-72
2022/10/27 12:36:28;;;;;;;4.85;1.27;;;19.90;99.90;;;;;;5051469;28;25090;-74
2022/10/27 12:39:13;;;;;;;4.72;1.55;;;19.90;99.90;;;;;;4960122;28;25059;-73
2022/10/27 12:41:45;;;;;;;4.32;1.92;;;19.90;99.90;;;;;;5066467;28;25075;-75
2022/10/27 12:44:17;;;;;;;11.45;1.95;;;20.00;99.90;;;;;;5066578;28;25066;-74
2022/10/27 12:46:55;;;;;;;9.50;1.73;;;20.00;99.90;;;;;;5061828;28;25134;-73
2022/10/27 12:49:56;;;;;;;6.38;1.65;;;20.00;99.90;;;;;;5061950;28;25085;-75
2022/10/27 12:52:25;;;;;;;2.55;1.55;;;20.10;99.90;;;;;;5071671;28;25102;-74
2022/10/27 12:55:15;;;;;;;3.13;1.58;;;20.20;99.90;;;;;;5072919;28;25084;-74
2022/10/27 12:58:14;;;;;;;5.15;1.60;;;20.20;99.90;;;;;;5073453;28;25069;-74
2022/10/27 13:00:57;;;;;;;3.85;1.58;;;20.30;99.90;;;;;;5063160;28;25059;-74
2022/10/27 13:03:22;;;;;;;9.27;2.30;;;20.20;99.90;;;;;;5057090;28;24881;-72
2022/10/27 13:06:26;;;;;;;5.65;1.80;;;20.20;99.90;;;;;;5060153;28;25055;-73